Terminal Aerodrome Forecast
Issued by NWS

Home | Current Version | Previous Version | Text Only | Print | Product List | Glossary On
Versions: 1 2 3 4 5 6 7 8 9 10 11 12
000
FTUS46 KMTR 211130
TAFSJC
TAF
KSJC 211130Z 2112/2212 VRB04KT P6SM FEW020 SCT070 BKN100
     FM212300 31007KT P6SM FEW020
     FM220300 30004KT P6SM SCT015
     FM220500 VRB04KT P6SM SCT015=

USA.gov is the U.S. government's official web portal to all federal, state and local government web resources and services.